HEGN Airport Information

Runway Information
Runway 16 Length 13124 ft width 148 ft
Elevation 50 ft Threshold 985 ft Heading 165
Runway 34 Length 13124 ft Width 148 ft
Elevation 35 ft Threshold 0 ft Heading 345
Airport Frequencies
Type APP Name RADAR Frequency 123.4 MHZ
Type GND Name GND Frequency 121.9 MHZ
Type RDO Name RDO Frequency 585.9 MHZ
Type TWR Name TWR Frequency 119.6 MHZ
Airport Navaids
Type VOR-DME Name Hurghada Frequency 116500 KHZ
Airport Weather Information & NOTAM
ADDS - METARS form results

(2139 UTC 01 October 2020)
Data provider http://aviationweather.gov/metar/data/
 
METAR text: HEGN 012100Z 27011KT CAVOK 31/13 Q1009 NOSIG
Conditions at: HEGN (HURGUADA , EG) observed 2100 UTC 01 October 2020
Temperature: 31.0°C (88°F)
Dewpoint: 13.0°C (55°F) [RH = 33%]
Pressure (altimeter): 29.79 inches Hg (1009.0 mb)
Winds: from the W (270 degrees) at 13 MPH (11 knots; 5.7 m/s)
Visibility: 6 or more miles (10+ km)
Ceiling: ceiling and visibility are OK
Clouds: unknown
Weather: no significant weather observed at this time

Forecast for: HEGN (HURGUADA , EG)
Text: TAF HEGN 011700Z 0118/0224 33012KT CAVOK
Forecast period: 1800 UTC 01 October 2020 to 0000 UTC 03 October 2020
Forecast type: FROM: standard forecast or significant change
Winds: from the NNW (330 degrees) at 14 MPH (12 knots; 6.2 m/s)
Visibility: 6 or more miles (10+ km)
Ceiling: unknown
Clouds: missing
Weather: NSW  (no significant weather)